sensor_id;sensor_type;location;lat;lon;timestamp;pressure;altitude;pressure_sealevel;temperature;humidity
10482;BME280;5288;42.334;23.876;2023-06-22T00:01:00;56098.84;;;-140.56;97.10
10482;BME280;5288;42.334;23.876;2023-06-22T00:03:27;56065.25;;;-140.56;97.39
10482;BME280;5288;42.334;23.876;2023-06-22T00:05:54;56077.09;;;-140.56;97.42
10482;BME280;5288;42.334;23.876;2023-06-22T00:08:22;56057.34;;;-140.56;97.39
10482;BME280;5288;42.334;23.876;2023-06-22T00:10:48;56085.00;;;-140.56;97.46
10482;BME280;5288;42.334;23.876;2023-06-22T00:13:17;56073.16;;;-140.56;96.96
10482;BME280;5288;42.334;23.876;2023-06-22T00:15:44;56083.03;;;-140.56;96.92
10482;BME280;5288;42.334;23.876;2023-06-22T00:18:11;56112.69;;;-140.56;96.98
10482;BME280;5288;42.334;23.876;2023-06-22T00:20:38;56073.16;;;-140.56;96.69
10482;BME280;5288;42.334;23.876;2023-06-22T00:23:06;56067.22;;;-140.56;95.81
10482;BME280;5288;42.334;23.876;2023-06-22T00:25:34;56077.09;;;-140.56;94.94
10482;BME280;5288;42.334;23.876;2023-06-22T00:28:02;56100.81;;;-140.56;94.67
10482;BME280;5288;42.334;23.876;2023-06-22T00:30:31;56045.50;;;-140.56;95.28
10482;BME280;5288;42.334;23.876;2023-06-22T00:32:58;56043.50;;;-140.56;95.01
10482;BME280;5288;42.334;23.876;2023-06-22T00:35:25;56087.00;;;-140.56;95.08
10482;BME280;5288;42.334;23.876;2023-06-22T00:37:54;56073.16;;;-140.56;94.59
10482;BME280;5288;42.334;23.876;2023-06-22T00:40:26;56122.56;;;-140.56;93.86
10482;BME280;5288;42.334;23.876;2023-06-22T00:42:54;56118.59;;;-140.56;94.54
10482;BME280;5288;42.334;23.876;2023-06-22T00:45:21;56088.97;;;-140.56;95.23
10482;BME280;5288;42.334;23.876;2023-06-22T00:47:52;56077.09;;;-140.56;95.47
10482;BME280;5288;42.334;23.876;2023-06-22T00:50:22;56083.03;;;-140.56;95.57
10482;BME280;5288;42.334;23.876;2023-06-22T00:52:52;56090.94;;;-140.56;94.81
10482;BME280;5288;42.334;23.876;2023-06-22T00:55:20;56071.19;;;-140.56;94.02
10482;BME280;5288;42.334;23.876;2023-06-22T00:57:48;56079.09;;;-140.56;94.73
10482;BME280;5288;42.334;23.876;2023-06-22T01:00:16;56081.06;;;-140.56;95.20
10482;BME280;5288;42.334;23.876;2023-06-22T01:02:45;56096.88;;;-140.56;95.34
10482;BME280;5288;42.334;23.876;2023-06-22T01:05:19;56108.72;;;-140.56;95.11
10482;BME280;5288;42.334;23.876;2023-06-22T01:07:55;56092.91;;;-140.56;94.83
10482;BME280;5288;42.334;23.876;2023-06-22T01:10:28;56092.91;;;-140.56;95.02
10482;BME280;5288;42.334;23.876;2023-06-22T01:13:01;56090.94;;;-140.56;95.45
10482;BME280;5288;42.334;23.876;2023-06-22T01:15:31;56104.78;;;-140.56;95.54
10482;BME280;5288;42.334;23.876;2023-06-22T01:18:03;56075.13;;;-140.56;95.23
10482;BME280;5288;42.334;23.876;2023-06-22T01:20:34;56063.28;;;-140.56;94.81
10482;BME280;5288;42.334;23.876;2023-06-22T01:23:24;56057.34;;;-140.56;95.08
10482;BME280;5288;42.334;23.876;2023-06-22T01:25:59;56120.59;;;-140.56;94.63
10482;BME280;5288;42.334;23.876;2023-06-22T01:28:42;56100.81;;;-140.56;93.76
10482;BME280;5288;42.334;23.876;2023-06-22T01:31:13;56067.22;;;-140.56;94.50
10482;BME280;5288;42.334;23.876;2023-06-22T01:33:43;56081.06;;;-140.56;94.21
10482;BME280;5288;42.334;23.876;2023-06-22T01:36:12;56092.91;;;-140.56;92.98
10482;BME280;5288;42.334;23.876;2023-06-22T01:38:40;56088.97;;;-140.56;92.26
10482;BME280;5288;42.334;23.876;2023-06-22T01:41:09;56108.72;;;-140.56;92.44
10482;BME280;5288;42.334;23.876;2023-06-22T01:43:36;56079.09;;;-140.56;92.45
10482;BME280;5288;42.334;23.876;2023-06-22T01:46:05;56096.88;;;-140.56;93.22
10482;BME280;5288;42.334;23.876;2023-06-22T01:48:33;56108.72;;;-140.56;92.89
10482;BME280;5288;42.334;23.876;2023-06-22T01:51:00;56090.94;;;-140.56;92.75
10482;BME280;5288;42.334;23.876;2023-06-22T01:53:27;56102.81;;;-140.56;92.90
10482;BME280;5288;42.334;23.876;2023-06-22T01:55:54;56102.81;;;-140.56;93.01
10482;BME280;5288;42.334;23.876;2023-06-22T01:58:23;56092.91;;;-140.56;93.48
10482;BME280;5288;42.334;23.876;2023-06-22T02:00:56;56112.69;;;-140.56;93.98
10482;BME280;5288;42.334;23.876;2023-06-22T02:03:31;56110.72;;;-140.56;94.61
10482;BME280;5288;42.334;23.876;2023-06-22T02:06:03;56116.63;;;-140.56;94.74
10482;BME280;5288;42.334;23.876;2023-06-22T02:08:37;56128.50;;;-140.56;94.78
10482;BME280;5288;42.334;23.876;2023-06-22T02:11:06;56110.72;;;-140.56;96.08
10482;BME280;5288;42.334;23.876;2023-06-22T02:13:35;56132.44;;;-140.56;96.65
10482;BME280;5288;42.334;23.876;2023-06-22T02:16:03;56124.53;;;-140.56;96.52
10482;BME280;5288;42.334;23.876;2023-06-22T02:18:32;56140.34;;;-140.56;96.19
10482;BME280;5288;42.334;23.876;2023-06-22T02:21:01;56100.81;;;-140.56;96.43
10482;BME280;5288;42.334;23.876;2023-06-22T02:23:28;56144.31;;;-140.56;97.78
10482;BME280;5288;42.334;23.876;2023-06-22T02:25:55;56106.75;;;-140.56;97.66
10482;BME280;5288;42.334;23.876;2023-06-22T02:28:22;56114.66;;;-140.56;97.52
10482;BME280;5288;42.334;23.876;2023-06-22T02:30:49;56063.28;;;-140.56;97.43
10482;BME280;5288;42.334;23.876;2023-06-22T02:33:16;56108.72;;;-140.56;96.77
10482;BME280;5288;42.334;23.876;2023-06-22T02:35:44;56112.69;;;-140.56;96.22
10482;BME280;5288;42.334;23.876;2023-06-22T02:38:14;56100.81;;;-140.56;95.55
10482;BME280;5288;42.334;23.876;2023-06-22T02:40:43;56098.84;;;-140.56;96.08
10482;BME280;5288;42.334;23.876;2023-06-22T02:43:10;56138.38;;;-140.56;95.91
10482;BME280;5288;42.334;23.876;2023-06-22T02:45:37;56112.69;;;-140.56;96.76
10482;BME280;5288;42.334;23.876;2023-06-22T02:48:05;56142.31;;;-140.56;97.66
10482;BME280;5288;42.334;23.876;2023-06-22T02:50:31;56140.34;;;-140.56;98.80
10482;BME280;5288;42.334;23.876;2023-06-22T02:53:00;56100.81;;;-140.56;99.05
10482;BME280;5288;42.334;23.876;2023-06-22T02:55:27;56114.66;;;-140.56;99.17
10482;BME280;5288;42.334;23.876;2023-06-22T02:57:54;56144.31;;;-140.56;98.40
10482;BME280;5288;42.334;23.876;2023-06-22T03:00:23;56122.56;;;-140.56;99.48
10482;BME280;5288;42.334;23.876;2023-06-22T03:02:56;56116.63;;;-140.56;98.16
10482;BME280;5288;42.334;23.876;2023-06-22T03:05:24;56120.59;;;-140.56;98.32
10482;BME280;5288;42.334;23.876;2023-06-22T03:07:51;56116.63;;;-140.56;96.68
10482;BME280;5288;42.334;23.876;2023-06-22T03:10:20;56108.72;;;-140.56;96.42
10482;BME280;5288;42.334;23.876;2023-06-22T03:12:47;56134.41;;;-140.56;95.78
10482;BME280;5288;42.334;23.876;2023-06-22T03:15:14;56112.69;;;-140.56;95.79
10482;BME280;5288;42.334;23.876;2023-06-22T03:17:42;56134.41;;;-140.56;96.31
10482;BME280;5288;42.334;23.876;2023-06-22T03:20:10;56108.72;;;-140.56;96.13
10482;BME280;5288;42.334;23.876;2023-06-22T03:22:38;56112.69;;;-140.56;94.83
10482;BME280;5288;42.334;23.876;2023-06-22T03:25:06;56114.66;;;-140.56;94.65
10482;BME280;5288;42.334;23.876;2023-06-22T03:27:39;56144.31;;;-140.56;95.17
10482;BME280;5288;42.334;23.876;2023-06-22T03:30:10;56126.50;;;-140.56;94.59
10482;BME280;5288;42.334;23.876;2023-06-22T03:32:37;56118.59;;;-140.56;93.97
10482;BME280;5288;42.334;23.876;2023-06-22T03:35:05;56102.81;;;-140.56;93.76
10482;BME280;5288;42.334;23.876;2023-06-22T03:37:32;56120.59;;;-140.56;94.76
10482;BME280;5288;42.334;23.876;2023-06-22T03:39:59;56136.41;;;-140.56;95.52
10482;BME280;5288;42.334;23.876;2023-06-22T03:42:26;56112.69;;;-140.56;94.29
10482;BME280;5288;42.334;23.876;2023-06-22T03:44:55;56120.59;;;-140.56;93.55
10482;BME280;5288;42.334;23.876;2023-06-22T03:47:22;56116.63;;;-140.56;93.47
10482;BME280;5288;42.334;23.876;2023-06-22T03:49:49;56104.78;;;-140.56;93.53
10482;BME280;5288;42.334;23.876;2023-06-22T03:52:20;56136.41;;;-140.56;93.00
10482;BME280;5288;42.334;23.876;2023-06-22T03:54:48;56118.59;;;-140.56;93.59
10482;BME280;5288;42.334;23.876;2023-06-22T03:57:15;56085.00;;;-140.56;93.36
10482;BME280;5288;42.334;23.876;2023-06-22T03:59:42;56106.75;;;-140.56;93.57
10482;BME280;5288;42.334;23.876;2023-06-22T04:02:10;56098.84;;;-140.56;94.07
10482;BME280;5288;42.334;23.876;2023-06-22T04:04:38;56116.63;;;-140.56;94.21
10482;BME280;5288;42.334;23.876;2023-06-22T04:07:05;56116.63;;;-140.56;93.83
10482;BME280;5288;42.334;23.876;2023-06-22T04:09:37;56090.94;;;-140.56;94.30
10482;BME280;5288;42.334;23.876;2023-06-22T04:12:22;56087.00;;;-140.56;94.79
10482;BME280;5288;42.334;23.876;2023-06-22T04:14:52;56116.63;;;-140.56;95.08
10482;BME280;5288;42.334;23.876;2023-06-22T04:17:21;56116.63;;;-140.56;94.39
10482;BME280;5288;42.334;23.876;2023-06-22T04:19:50;56100.81;;;-140.56;93.78
10482;BME280;5288;42.334;23.876;2023-06-22T04:22:17;56102.81;;;-140.56;93.28
10482;BME280;5288;42.334;23.876;2023-06-22T04:24:44;56122.56;;;-140.56;93.01
10482;BME280;5288;42.334;23.876;2023-06-22T04:27:11;56102.81;;;-140.56;92.10
10482;BME280;5288;42.334;23.876;2023-06-22T04:29:38;56079.09;;;-140.56;92.49
10482;BME280;5288;42.334;23.876;2023-06-22T04:32:14;56114.66;;;-140.56;92.23
10482;BME280;5288;42.334;23.876;2023-06-22T04:34:43;56088.97;;;-140.56;91.33
10482;BME280;5288;42.334;23.876;2023-06-22T04:37:10;56122.56;;;-140.56;91.78
10482;BME280;5288;42.334;23.876;2023-06-22T04:39:41;56081.06;;;-140.56;91.81
10482;BME280;5288;42.334;23.876;2023-06-22T04:42:14;56073.16;;;-140.56;91.00
10482;BME280;5288;42.334;23.876;2023-06-22T04:44:46;56075.13;;;-140.56;91.09
10482;BME280;5288;42.334;23.876;2023-06-22T04:47:13;56104.78;;;-140.56;90.28
10482;BME280;5288;42.334;23.876;2023-06-22T04:49:40;56065.25;;;-140.56;89.12
10482;BME280;5288;42.334;23.876;2023-06-22T04:52:11;56053.41;;;-140.56;87.54
10482;BME280;5288;42.334;23.876;2023-06-22T04:54:40;56079.09;;;-140.56;86.27
10482;BME280;5288;42.334;23.876;2023-06-22T04:57:14;56053.41;;;-140.56;85.17
10482;BME280;5288;42.334;23.876;2023-06-22T04:59:41;56088.97;;;-140.56;84.50
10482;BME280;5288;42.334;23.876;2023-06-22T05:02:08;56069.22;;;-140.56;83.66
10482;BME280;5288;42.334;23.876;2023-06-22T05:04:35;56075.13;;;-140.56;83.37
10482;BME280;5288;42.334;23.876;2023-06-22T05:07:04;56033.63;;;-140.56;80.69
10482;BME280;5288;42.334;23.876;2023-06-22T05:09:33;56061.31;;;-140.56;80.91
10482;BME280;5288;42.334;23.876;2023-06-22T05:12:01;56071.19;;;-140.56;80.76
10482;BME280;5288;42.334;23.876;2023-06-22T05:14:28;56041.53;;;-140.56;82.13
10482;BME280;5288;42.334;23.876;2023-06-22T05:17:00;56061.31;;;-140.56;80.60
10482;BME280;5288;42.334;23.876;2023-06-22T05:19:38;56053.41;;;-140.56;80.05
10482;BME280;5288;42.334;23.876;2023-06-22T05:22:10;56063.28;;;-140.56;79.61
10482;BME280;5288;42.334;23.876;2023-06-22T05:24:40;56055.38;;;-140.56;77.66
10482;BME280;5288;42.334;23.876;2023-06-22T05:27:07;56061.31;;;-140.56;77.39
10482;BME280;5288;42.334;23.876;2023-06-22T05:29:37;56047.47;;;-140.56;76.29
10482;BME280;5288;42.334;23.876;2023-06-22T05:32:11;56055.38;;;-140.56;75.61
10482;BME280;5288;42.334;23.876;2023-06-22T05:34:46;56065.25;;;-140.56;76.35
10482;BME280;5288;42.334;23.876;2023-06-22T05:37:13;56027.72;;;-140.56;75.09
10482;BME280;5288;42.334;23.876;2023-06-22T05:39:42;56059.31;;;-140.56;75.53
10482;BME280;5288;42.334;23.876;2023-06-22T05:42:09;56059.31;;;-140.56;73.86
10482;BME280;5288;42.334;23.876;2023-06-22T05:44:41;56031.66;;;-140.56;73.03
10482;BME280;5288;42.334;23.876;2023-06-22T05:47:12;56033.63;;;-140.56;73.78
10482;BME280;5288;42.334;23.876;2023-06-22T05:49:39;56037.59;;;-140.56;73.67
10482;BME280;5288;42.334;23.876;2023-06-22T05:52:07;56019.81;;;-140.56;73.04
10482;BME280;5288;42.334;23.876;2023-06-22T05:54:34;56013.88;;;-140.56;72.43
10482;BME280;5288;42.334;23.876;2023-06-22T05:57:03;56017.81;;;-140.56;71.82
10482;BME280;5288;42.334;23.876;2023-06-22T05:59:31;56027.72;;;-140.56;71.48
10482;BME280;5288;42.334;23.876;2023-06-22T06:01:58;56025.72;;;-140.56;70.94
10482;BME280;5288;42.334;23.876;2023-06-22T06:04:25;56035.63;;;-140.56;69.79
10482;BME280;5288;42.334;23.876;2023-06-22T06:06:52;56021.78;;;-140.56;68.54
10482;BME280;5288;42.334;23.876;2023-06-22T06:09:19;55988.19;;;-140.56;68.88
10482;BME280;5288;42.334;23.876;2023-06-22T06:11:50;56002.00;;;-140.56;68.41
10482;BME280;5288;42.334;23.876;2023-06-22T06:14:20;55982.25;;;-140.56;64.94
10482;BME280;5288;42.334;23.876;2023-06-22T06:16:49;55994.13;;;-140.56;65.46
10482;BME280;5288;42.334;23.876;2023-06-22T06:19:18;55968.41;;;-140.56;64.82
10482;BME280;5288;42.334;23.876;2023-06-22T06:21:46;55980.28;;;-140.56;65.09
10482;BME280;5288;42.334;23.876;2023-06-22T06:24:15;55966.44;;;-140.56;63.79
10482;BME280;5288;42.334;23.876;2023-06-22T06:26:42;55988.19;;;-140.56;62.40
10482;BME280;5288;42.334;23.876;2023-06-22T06:29:14;55946.69;;;-140.56;60.51
10482;BME280;5288;42.334;23.876;2023-06-22T06:31:47;55952.63;;;-140.56;61.75
10482;BME280;5288;42.334;23.876;2023-06-22T06:34:14;55954.59;;;-140.56;61.79
10482;BME280;5288;42.334;23.876;2023-06-22T06:36:43;55960.53;;;-140.56;59.97
10482;BME280;5288;42.334;23.876;2023-06-22T06:39:12;55936.81;;;-140.56;60.62
10482;BME280;5288;42.334;23.876;2023-06-22T06:41:40;55936.81;;;-140.56;60.56
10482;BME280;5288;42.334;23.876;2023-06-22T06:44:09;55938.78;;;-140.56;60.69
10482;BME280;5288;42.334;23.876;2023-06-22T06:46:36;55921.00;;;-140.56;60.55
10482;BME280;5288;42.334;23.876;2023-06-22T06:49:05;55917.03;;;-140.56;60.80
10482;BME280;5288;42.334;23.876;2023-06-22T06:51:32;55924.94;;;-140.56;60.33
10482;BME280;5288;42.334;23.876;2023-06-22T06:53:59;55897.28;;;-140.56;58.36
10482;BME280;5288;42.334;23.876;2023-06-22T06:56:27;55926.94;;;-140.56;59.88
10482;BME280;5288;42.334;23.876;2023-06-22T06:59:03;55907.16;;;-140.56;59.36
10482;BME280;5288;42.334;23.876;2023-06-22T07:01:31;55905.19;;;-140.56;59.62
10482;BME280;5288;42.334;23.876;2023-06-22T07:04:01;55899.25;;;-140.56;58.96
10482;BME280;5288;42.334;23.876;2023-06-22T07:06:30;55897.28;;;-140.56;59.19
10482;BME280;5288;42.334;23.876;2023-06-22T07:08:58;55913.09;;;-140.56;59.26
10482;BME280;5288;42.334;23.876;2023-06-22T07:11:28;55875.53;;;-140.56;57.19
10482;BME280;5288;42.334;23.876;2023-06-22T07:13:55;55875.53;;;-140.56;58.17
10482;BME280;5288;42.334;23.876;2023-06-22T07:16:23;55879.50;;;-140.56;56.61
10482;BME280;5288;42.334;23.876;2023-06-22T07:18:51;55877.53;;;-140.56;54.76
10482;BME280;5288;42.334;23.876;2023-06-22T07:21:18;55851.84;;;-140.56;55.11
10482;BME280;5288;42.334;23.876;2023-06-22T07:23:47;55899.25;;;-140.56;55.81
10482;BME280;5288;42.334;23.876;2023-06-22T07:26:14;55869.63;;;-140.56;55.30
10482;BME280;5288;42.334;23.876;2023-06-22T07:28:42;55869.63;;;-140.56;54.22
10482;BME280;5288;42.334;23.876;2023-06-22T07:31:09;55907.16;;;-140.56;52.75
10482;BME280;5288;42.334;23.876;2023-06-22T07:33:36;55851.84;;;-140.56;52.36
10482;BME280;5288;42.334;23.876;2023-06-22T07:36:04;55855.78;;;-140.56;52.59
10482;BME280;5288;42.334;23.876;2023-06-22T07:38:33;55832.06;;;-140.56;52.60
10482;BME280;5288;42.334;23.876;2023-06-22T07:41:02;55832.06;;;-140.56;51.91
10482;BME280;5288;42.334;23.876;2023-06-22T07:43:31;55845.91;;;-140.56;49.23
10482;BME280;5288;42.334;23.876;2023-06-22T07:45:58;55843.94;;;-140.56;51.47
10482;BME280;5288;42.334;23.876;2023-06-22T07:48:25;55802.44;;;-140.56;48.60
10482;BME280;5288;42.334;23.876;2023-06-22T07:50:52;55843.94;;;-140.56;48.61
10482;BME280;5288;42.334;23.876;2023-06-22T07:53:20;55824.16;;;-140.56;49.37
10482;BME280;5288;42.334;23.876;2023-06-22T07:55:47;55849.84;;;-140.56;48.67
10482;BME280;5288;42.334;23.876;2023-06-22T07:58:16;55804.41;;;-140.56;49.76
10482;BME280;5288;42.334;23.876;2023-06-22T08:00:44;55814.28;;;-140.56;47.23
10482;BME280;5288;42.334;23.876;2023-06-22T08:03:11;55800.47;;;-140.56;49.05
10482;BME280;5288;42.334;23.876;2023-06-22T08:05:39;55806.38;;;-140.56;46.51
10482;BME280;5288;42.334;23.876;2023-06-22T08:08:06;55782.66;;;-140.56;45.55
10482;BME280;5288;42.334;23.876;2023-06-22T08:10:33;55798.47;;;-140.56;45.97
10482;BME280;5288;42.334;23.876;2023-06-22T08:13:00;55790.56;;;-140.56;48.82
10482;BME280;5288;42.334;23.876;2023-06-22T08:15:28;55768.84;;;-140.56;46.82
10482;BME280;5288;42.334;23.876;2023-06-22T08:17:55;55772.78;;;-140.56;46.18
10482;BME280;5288;42.334;23.876;2023-06-22T08:20:23;55764.88;;;-140.56;44.88
10482;BME280;5288;42.334;23.876;2023-06-22T08:22:50;55739.19;;;-140.56;44.14
10482;BME280;5288;42.334;23.876;2023-06-22T08:25:17;55731.28;;;-140.56;43.56
10482;BME280;5288;42.334;23.876;2023-06-22T08:27:45;55766.88;;;-140.56;42.89
10482;BME280;5288;42.334;23.876;2023-06-22T08:30:20;55747.09;;;-140.56;42.07
10482;BME280;5288;42.334;23.876;2023-06-22T08:32:54;55739.19;;;-140.56;42.11
10482;BME280;5288;42.334;23.876;2023-06-22T08:35:22;55727.34;;;-140.56;42.53
10482;BME280;5288;42.334;23.876;2023-06-22T08:37:49;55733.28;;;-140.56;42.68
10482;BME280;5288;42.334;23.876;2023-06-22T08:40:19;55737.22;;;-140.56;39.37
10482;BME280;5288;42.334;23.876;2023-06-22T08:42:47;55713.50;;;-140.56;38.85
10482;BME280;5288;42.334;23.876;2023-06-22T08:45:14;55729.31;;;-140.56;41.40
10482;BME280;5288;42.334;23.876;2023-06-22T08:47:42;55725.38;;;-140.56;40.91
10482;BME280;5288;42.334;23.876;2023-06-22T08:50:14;55697.69;;;-140.56;39.60
10482;BME280;5288;42.334;23.876;2023-06-22T08:52:41;55695.72;;;-140.56;41.82
10482;BME280;5288;42.334;23.876;2023-06-22T08:55:09;55727.34;;;-140.56;40.86
10482;BME280;5288;42.334;23.876;2023-06-22T08:57:37;55717.47;;;-140.56;41.19
10482;BME280;5288;42.334;23.876;2023-06-22T09:00:06;55713.50;;;-140.56;41.68
10482;BME280;5288;42.334;23.876;2023-06-22T09:02:41;55713.50;;;-140.56;39.88
10482;BME280;5288;42.334;23.876;2023-06-22T09:05:10;55677.94;;;-140.56;39.02
10482;BME280;5288;42.334;23.876;2023-06-22T09:07:37;55677.94;;;-140.56;41.19
10482;BME280;5288;42.334;23.876;2023-06-22T09:10:05;55687.81;;;-140.56;40.85
10482;BME280;5288;42.334;23.876;2023-06-22T09:12:33;55725.38;;;-140.56;39.44
10482;BME280;5288;42.334;23.876;2023-06-22T09:15:03;55681.91;;;-140.56;41.63
10482;BME280;5288;42.334;23.876;2023-06-22T09:17:30;55699.69;;;-140.56;40.52
10482;BME280;5288;42.334;23.876;2023-06-22T09:19:57;55666.09;;;-140.56;40.58
10482;BME280;5288;42.334;23.876;2023-06-22T09:22:27;55699.69;;;-140.56;40.60
10482;BME280;5288;42.334;23.876;2023-06-22T09:24:55;55662.13;;;-140.56;38.95
10482;BME280;5288;42.334;23.876;2023-06-22T09:27:22;55677.94;;;-140.56;38.02
10482;BME280;5288;42.334;23.876;2023-06-22T09:29:54;55729.31;;;-140.56;37.39
10482;BME280;5288;42.334;23.876;2023-06-22T09:32:24;55745.13;;;-140.56;37.92
10482;BME280;5288;42.334;23.876;2023-06-22T09:34:51;55729.31;;;-140.56;37.17
10482;BME280;5288;42.334;23.876;2023-06-22T09:37:18;55731.28;;;-140.56;37.10
10482;BME280;5288;42.334;23.876;2023-06-22T09:39:47;55689.81;;;-140.56;37.19
10482;BME280;5288;42.334;23.876;2023-06-22T09:42:14;55685.84;;;-140.56;37.67
10482;BME280;5288;42.334;23.876;2023-06-22T09:44:42;55719.44;;;-140.56;37.20
10482;BME280;5288;42.334;23.876;2023-06-22T09:47:09;55685.84;;;-140.56;37.74
10482;BME280;5288;42.334;23.876;2023-06-22T09:49:36;55660.16;;;-140.56;38.20
10482;BME280;5288;42.334;23.876;2023-06-22T09:52:04;55729.31;;;-140.56;38.60
10482;BME280;5288;42.334;23.876;2023-06-22T09:54:31;55701.66;;;-140.56;37.53
10482;BME280;5288;42.334;23.876;2023-06-22T09:57:00;55707.59;;;-140.56;37.04
10482;BME280;5288;42.334;23.876;2023-06-22T09:59:28;55660.16;;;-140.56;37.80
10482;BME280;5288;42.334;23.876;2023-06-22T10:01:55;55685.84;;;-140.56;38.74
10482;BME280;5288;42.334;23.876;2023-06-22T10:04:22;55701.66;;;-140.56;38.24
10482;BME280;5288;42.334;23.876;2023-06-22T10:06:50;55668.06;;;-140.56;40.24
10482;BME280;5288;42.334;23.876;2023-06-22T10:09:17;55687.81;;;-140.56;39.01
10482;BME280;5288;42.334;23.876;2023-06-22T10:11:44;55674.00;;;-140.56;38.37
10482;BME280;5288;42.334;23.876;2023-06-22T10:14:13;55644.34;;;-140.56;40.50
10482;BME280;5288;42.334;23.876;2023-06-22T10:16:40;55646.31;;;-140.56;40.66
10482;BME280;5288;42.334;23.876;2023-06-22T10:19:07;55654.22;;;-140.56;38.46
10482;BME280;5288;42.334;23.876;2023-06-22T10:21:34;55650.28;;;-140.56;36.47
10482;BME280;5288;42.334;23.876;2023-06-22T10:24:02;55660.16;;;-140.56;36.89
10482;BME280;5288;42.334;23.876;2023-06-22T10:26:31;55636.44;;;-140.56;36.08
10482;BME280;5288;42.334;23.876;2023-06-22T10:28:58;55626.56;;;-140.56;35.87
10482;BME280;5288;42.334;23.876;2023-06-22T10:31:27;55660.16;;;-140.56;36.52
10482;BME280;5288;42.334;23.876;2023-06-22T10:33:55;55642.38;;;-140.56;37.45
10482;BME280;5288;42.334;23.876;2023-06-22T10:36:22;55674.00;;;-140.56;36.97
10482;BME280;5288;42.334;23.876;2023-06-22T10:38:49;55674.00;;;-140.56;38.23
10482;BME280;5288;42.334;23.876;2023-06-22T10:41:18;55642.38;;;-140.56;36.97
10482;BME280;5288;42.334;23.876;2023-06-22T10:43:45;55596.94;;;-140.56;37.06
10482;BME280;5288;42.334;23.876;2023-06-22T10:46:12;55642.38;;;-140.56;35.71
10482;BME280;5288;42.334;23.876;2023-06-22T10:48:40;55628.53;;;-140.56;35.76
10482;BME280;5288;42.334;23.876;2023-06-22T10:51:07;55602.84;;;-140.56;36.58
10482;BME280;5288;42.334;23.876;2023-06-22T10:53:34;55622.63;;;-140.56;35.28
10482;BME280;5288;42.334;23.876;2023-06-22T10:56:01;55634.47;;;-140.56;35.22
10482;BME280;5288;42.334;23.876;2023-06-22T10:58:28;55646.31;;;-140.56;36.92
10482;BME280;5288;42.334;23.876;2023-06-22T11:00:55;55650.28;;;-140.56;37.69
10482;BME280;5288;42.334;23.876;2023-06-22T11:03:22;55664.13;;;-140.56;35.61
10482;BME280;5288;42.334;23.876;2023-06-22T11:05:51;55648.31;;;-140.56;36.51
10482;BME280;5288;42.334;23.876;2023-06-22T11:08:18;55654.22;;;-140.56;36.05
10482;BME280;5288;42.334;23.876;2023-06-22T11:10:45;55648.31;;;-140.56;35.69
10482;BME280;5288;42.334;23.876;2023-06-22T11:13:12;55628.53;;;-140.56;37.63
10482;BME280;5288;42.334;23.876;2023-06-22T11:15:39;55602.84;;;-140.56;37.04
10482;BME280;5288;42.334;23.876;2023-06-22T11:18:06;55602.84;;;-140.56;35.39
10482;BME280;5288;42.334;23.876;2023-06-22T11:20:34;55624.59;;;-140.56;33.82
10482;BME280;5288;42.334;23.876;2023-06-22T11:23:07;55624.59;;;-140.56;36.73
10482;BME280;5288;42.334;23.876;2023-06-22T11:25:34;55622.63;;;-140.56;35.58
10482;BME280;5288;42.334;23.876;2023-06-22T11:28:02;55630.53;;;-140.56;39.50
10482;BME280;5288;42.334;23.876;2023-06-22T11:30:29;55646.31;;;-140.56;37.14
10482;BME280;5288;42.334;23.876;2023-06-22T11:32:58;55648.31;;;-140.56;36.66
10482;BME280;5288;42.334;23.876;2023-06-22T11:35:25;55648.31;;;-140.56;35.83
10482;BME280;5288;42.334;23.876;2023-06-22T11:37:52;55624.59;;;-140.56;38.34
10482;BME280;5288;42.334;23.876;2023-06-22T11:40:21;55656.22;;;-140.56;39.60
10482;BME280;5288;42.334;23.876;2023-06-22T11:42:51;55634.47;;;-140.56;38.92
10482;BME280;5288;42.334;23.876;2023-06-22T11:45:18;55638.41;;;-140.56;37.63
10482;BME280;5288;42.334;23.876;2023-06-22T11:47:46;55632.50;;;-140.56;37.42
10482;BME280;5288;42.334;23.876;2023-06-22T11:50:13;55636.44;;;-140.56;37.06
10482;BME280;5288;42.334;23.876;2023-06-22T11:52:40;55636.44;;;-140.56;37.43
10482;BME280;5288;42.334;23.876;2023-06-22T11:55:07;55579.16;;;-140.56;36.61
10482;BME280;5288;42.334;23.876;2023-06-22T11:57:37;55583.09;;;-140.56;35.37
10482;BME280;5288;42.334;23.876;2023-06-22T12:00:05;55622.63;;;-140.56;33.97
10482;BME280;5288;42.334;23.876;2023-06-22T12:02:40;55616.69;;;-140.56;36.56
10482;BME280;5288;42.334;23.876;2023-06-22T12:05:07;55638.41;;;-140.56;38.34
10482;BME280;5288;42.334;23.876;2023-06-22T12:07:39;55591.00;;;-140.56;37.45
10482;BME280;5288;42.334;23.876;2023-06-22T12:10:10;55604.84;;;-140.56;36.23
10482;BME280;5288;42.334;23.876;2023-06-22T12:12:38;55654.22;;;-140.56;38.60
10482;BME280;5288;42.334;23.876;2023-06-22T12:15:06;55654.22;;;-140.56;41.56
10482;BME280;5288;42.334;23.876;2023-06-22T12:17:34;55683.88;;;-140.56;44.10
10482;BME280;5288;42.334;23.876;2023-06-22T12:20:01;55646.31;;;-140.56;47.06
10482;BME280;5288;42.334;23.876;2023-06-22T12:22:30;55666.09;;;-140.56;49.92
10482;BME280;5288;42.334;23.876;2023-06-22T12:24:58;55701.66;;;-140.56;48.33
10482;BME280;5288;42.334;23.876;2023-06-22T12:27:25;55717.47;;;-140.56;49.71
10482;BME280;5288;42.334;23.876;2023-06-22T12:29:54;55693.75;;;-140.56;49.70
10482;BME280;5288;42.334;23.876;2023-06-22T12:32:21;55701.66;;;-140.56;49.43
10482;BME280;5288;42.334;23.876;2023-06-22T12:34:48;55674.00;;;-140.56;49.64
10482;BME280;5288;42.334;23.876;2023-06-22T12:37:23;55683.88;;;-140.56;50.33
10482;BME280;5288;42.334;23.876;2023-06-22T12:39:57;55687.81;;;-140.56;51.47
10482;BME280;5288;42.334;23.876;2023-06-22T12:42:24;55687.81;;;-140.56;49.15
10482;BME280;5288;42.334;23.876;2023-06-22T12:44:54;55685.84;;;-140.56;47.79
10482;BME280;5288;42.334;23.876;2023-06-22T12:47:21;55672.00;;;-140.56;46.35